Latest Weather Observations for Orange Airport

IDN60801

Issued at 2:35 pm EST Thursday 24 April 2014 (issued every 30 minutes, with the page automatically refreshed every 10 minutes)

About weather observations | Map of weather stations | Latest weather observations for NSW | Other Formats
Station Details ID: 063303 Name: ORANGE AIRPORT AWS Lat: -33.38 Lon: 149.13 Height: 947.4 m
Data from the previous 72 hours. | See also: Recent months at Orange Airport
Date/Time
EST
Temp
°C
App
Temp
°C
Dew
Point
Rel
Hum
%
Delta-T
°C
Wind Press
QNH
hPa
Press
MSL
hPa
Rain
since 9 am
mm
Dir
 
Spd
km/h
Gust
km/h
Spd
kts
Gust
kts
24/02:30pm 20.6 17.6 5.8 38 7.7 WSW 11 19 6 10 1017.0 - 0.0
24/02:00pm 20.1 15.4 3.3 33 8.3 W 17 24 9 13 1017.1 - 0.0
24/01:30pm 20.2 15.1 4.3 35 8.1 W 20 30 11 16 1017.0 - 0.0
24/01:00pm 20.3 14.4 3.9 34 8.2 WNW 24 32 13 17 1017.1 - 0.0
24/12:30pm 20.3 15.5 4.8 36 7.9 W 19 30 10 16 1017.4 - 0.0
24/12:00pm 20.2 14.4 4.3 35 8.0 WNW 24 32 13 17 1017.8 1016.2 0.0
24/11:30am 20.4 15.5 6.7 41 7.3 NW 22 33 12 18 1018.2 - 0.0
24/11:00am 19.2 13.3 3.8 36 7.7 NW 24 33 13 18 1018.4 - 0.0
24/10:30am 19.0 13.8 5.5 41 6.9 NW 22 30 12 16 1018.6 - 0.0
24/10:00am 18.2 11.9 4.0 39 7.1 NNW 26 32 14 17 1018.4 - 0.0
24/09:30am 17.8 11.9 3.7 39 6.9 NNW 24 32 13 17 1018.3 - 0.0
24/09:00am 17.2 12.3 5.2 45 6.1 NNW 20 24 11 13 1018.4 1016.9 0.0
24/08:30am 16.0 11.3 5.9 51 5.1 NNW 20 28 11 15 1018.2 - 0.0
24/08:00am 14.3 10.1 5.9 57 4.2 NNW 17 20 9 11 1017.9 - 0.0
24/07:30am 12.8 10.0 5.0 59 3.8 NNW 9 13 5 7 1017.7 - 0.0
24/07:00am 11.6 8.0 3.1 56 3.9 NW 11 13 6 7 1017.4 - 0.0
24/06:30am 7.6 4.7 1.7 66 2.6 NW 6 7 3 4 1017.2 - 0.0
24/06:00am 7.4 4.9 1.3 65 2.6 N 4 9 2 5 1016.9 1015.4 0.0
24/05:30am 8.2 6.5 1.6 63 2.9 CALM 0 0 0 0 1017.0 - 0.0
24/05:00am 8.2 5.1 1.1 61 3.1 NNE 7 11 4 6 1016.8 - 0.0
24/04:30am 9.4 6.3 1.1 56 3.6 NNE 7 9 4 5 1016.9 - 0.0
24/04:00am 9.9 6.9 2.3 59 3.4 NNE 7 11 4 6 1016.9 - 0.0
24/03:30am 8.4 6.1 2.6 67 2.6 E 4 7 2 4 1017.0 - 0.0
24/03:00am 8.7 5.9 2.9 67 2.6 SE 7 9 4 5 1017.1 1015.6 0.0
24/02:30am 7.5 6.1 3.4 75 1.8 ESE 0 6 0 3 1017.3 - 0.0
24/02:21am 8.4 7.0 3.5 71 2.2 CALM 0 0 0 0 1017.3 - 0.0
24/02:01am 9.4 7.2 3.4 66 2.8 N 4 9 2 5 1017.4 - 0.0
24/02:00am 9.4 7.2 3.2 65 2.8 NNW 4 9 2 5 1017.4 - 0.0
24/01:30am 10.6 9.3 3.9 63 3.1 CALM 0 0 0 0 1017.9 - 0.0
24/01:19am 11.2 10.0 4.4 63 3.2 CALM 0 0 0 0 1017.9 - 0.0
24/01:01am 11.9 9.9 4.6 61 3.5 WNW 4 7 2 4 1018.1 - 0.0
24/01:00am 12.0 10.1 4.7 61 3.5 WNW 4 7 2 4 1018.1 - 0.0
24/12:30am 13.0 11.0 4.4 56 4.1 N 4 6 2 3 1018.2 - 0.0
24/12:00am 11.7 8.8 4.7 62 3.4 NNW 9 9 5 5 1018.3 1016.8 0.0
 
Date/Time
EST
Temp
°C
App
Temp
°C
Dew
Point
Rel
Hum
%
Delta-T
°C
Wind Press
QNH
hPa
Press
MSL
hPa
Rain
since 9 am
mm
Dir
 
Spd
km/h
Gust
km/h
Spd
kts
Gust
kts
23/11:30pm 12.5 9.7 5.2 61 3.6 NNW 9 9 5 5 1018.4 - 0.0
23/11:00pm 8.9 7.0 5.1 77 1.8 WNW 4 9 2 5 1018.6 - 0.0
23/10:30pm 8.4 7.3 5.2 80 1.5 CALM 0 0 0 0 1018.7 - 0.0
23/10:00pm 8.3 7.2 5.2 81 1.5 CALM 0 0 0 0 1019.1 - 0.0
23/09:30pm 8.7 7.8 6.0 83 1.3 CALM 0 0 0 0 1019.1 - 0.0
23/09:00pm 8.5 7.5 5.4 81 1.5 CALM 0 0 0 0 1019.2 1017.7 0.0
23/08:42pm 8.9 7.9 5.5 79 1.6 CALM 0 0 0 0 1019.2 - 0.0
23/08:30pm 8.7 7.6 5.1 78 1.7 W 0 0 0 0 1019.3 - 0.0
23/08:24pm 9.5 8.5 5.7 77 1.8 CALM 0 0 0 0 1019.3 - 0.0
23/08:00pm 9.7 8.8 5.9 77 1.8 CALM 0 7 0 4 1019.3 - 0.0
23/07:30pm 9.6 8.6 5.8 77 1.8 CALM 0 0 0 0 1019.3 - 0.0
23/07:00pm 10.1 9.0 5.3 72 2.3 CALM 0 0 0 0 1019.3 - 0.0
23/06:30pm 12.6 11.7 6.0 64 3.3 CALM 0 0 0 0 1019.2 - 0.0
23/06:00pm 15.6 13.4 6.3 54 4.7 NW 7 7 4 4 1018.9 1017.4 0.0
23/05:30pm 15.9 13.7 6.3 53 4.9 NNW 7 9 4 5 1018.7 - 0.0
23/05:00pm 16.9 14.5 7.0 52 5.2 N 9 11 5 6 1018.5 - 0.0
23/04:30pm 20.2 18.9 6.2 40 7.3 WSW 2 7 1 4 1018.5 - 0.0
23/04:00pm 19.8 18.6 4.7 37 7.7 CALM 0 4 0 2 1018.3 - 0.0
23/03:30pm 19.4 17.2 5.1 39 7.3 SSE 6 9 3 5 1018.5 - 0.0
23/03:00pm 19.9 18.4 5.2 38 7.5 SW 2 9 1 5 1018.5 1017.0 0.0
23/02:30pm 19.9 18.6 5.9 40 7.3 SSE 2 9 1 5 1018.4 - 0.0
23/02:01pm 19.4 16.8 4.3 37 7.6 S 7 13 4 7 1018.5 - 0.0
23/02:00pm 19.4 17.0 5.1 39 7.3 S 7 13 4 7 1018.5 - 0.0
23/01:30pm 19.4 16.6 5.1 39 7.3 WSW 9 15 5 8 1018.7 - 0.0
23/01:28pm 19.2 16.2 4.2 37 7.5 WSW 9 15 5 8 1018.7 - 0.0
23/01:00pm 19.2 16.6 4.2 37 7.5 SW 7 15 4 8 1019.1 - 0.0
23/12:30pm 19.5 16.6 4.4 37 7.6 SW 9 19 5 10 1019.5 - 0.0
23/12:00pm 18.9 15.6 2.7 34 7.9 S 9 13 5 7 1019.7 1018.3 0.0
23/11:30am 18.8 16.6 6.0 43 6.6 SSW 7 15 4 8 1020.2 - 0.0
23/11:00am 18.4 15.9 4.9 41 6.8 SSW 7 11 4 6 1020.4 - 0.0
23/10:30am 18.6 17.4 6.4 45 6.4 WSW 2 9 1 5 1020.5 - 0.0
23/10:00am 17.8 16.2 4.4 41 6.7 SSE 2 7 1 4 1020.6 - 0.0
23/09:30am 16.7 15.6 5.3 47 5.8 CALM 0 4 0 2 1020.7 - 0.0
23/09:00am 15.9 14.5 3.4 43 6.0 CALM 0 6 0 3 1020.6 1019.2 0.0
23/08:30am 13.4 12.9 8.0 70 2.8 CALM 0 6 0 3 1020.6 - 0.0
23/08:00am 10.1 9.5 7.5 84 1.3 CALM 0 0 0 0 1020.4 - 0.0
23/07:30am 6.0 4.9 5.0 93 0.5 CALM 0 0 0 0 1020.2 - 0.0
23/07:00am 3.9 2.2 1.9 87 0.8 CALM 0 0 0 0 1020.0 - 0.0
23/06:30am 4.3 2.7 2.7 89 0.7 CALM 0 0 0 0 1019.7 - 0.0
23/06:00am 4.7 3.1 2.7 87 0.9 CALM 0 0 0 0 1019.6 1018.1 0.0
23/05:30am 5.9 4.6 3.9 87 0.9 CALM 0 0 0 0 1019.5 - 0.0
23/05:00am 5.0 3.6 3.3 89 0.7 CALM 0 0 0 0 1019.5 - 0.0
23/04:30am 6.3 5.2 5.3 93 0.5 CALM 0 0 0 0 1019.4 - 0.0
23/04:00am 5.0 2.9 4.0 93 0.4 S 4 6 2 3 1019.4 - 0.0
23/03:30am 2.8 0.3 1.8 93 0.4 S 4 7 2 4 1019.5 - 0.0
23/03:00am 4.1 1.3 3.1 93 0.4 S 7 7 4 4 1019.4 1017.9 0.0
23/02:30am 3.2 0.2 2.2 93 0.4 SSE 7 9 4 5 1019.6 - 0.0
23/02:00am 2.5 0.0 1.5 93 0.4 SSE 4 7 2 4 1019.6 - 0.0
23/01:30am 2.5 -0.4 1.5 93 0.4 S 6 7 3 4 1019.8 - 0.0
23/01:00am 3.2 0.4 2.2 93 0.4 S 6 6 3 3 1020.1 - 0.0
23/12:30am 3.5 0.6 2.5 93 0.4 S 7 7 4 4 1020.3 - 0.0
23/12:00am 2.2 -0.7 1.2 93 0.4 SW 6 7 3 4 1020.4 1018.9 0.0
 
Date/Time
EST
Temp
°C
App
Temp
°C
Dew
Point
Rel
Hum
%
Delta-T
°C
Wind Press
QNH
hPa
Press
MSL
hPa
Rain
since 9 am
mm
Dir
 
Spd
km/h
Gust
km/h
Spd
kts
Gust
kts
22/11:30pm 2.4 0.6 1.4 93 0.4 CALM 0 7 0 4 1020.3 - 0.0
22/11:00pm 2.2 -0.4 1.2 93 0.4 SW 4 6 2 3 1020.5 - 0.0
22/10:30pm 3.2 1.6 2.2 93 0.4 CALM 0 4 0 2 1020.7 - 0.0
22/10:00pm 3.4 1.8 2.2 92 0.5 CALM 0 0 0 0 1020.8 - 0.0
22/09:30pm 5.8 3.2 4.1 89 0.8 WNW 7 9 4 5 1021.1 - 0.0
22/09:00pm 6.1 4.6 5.1 93 0.5 WSW 2 7 1 4 1021.2 1019.7 0.0
22/08:30pm 4.7 3.3 3.5 92 0.5 CALM 0 0 0 0 1021.1 - 0.0
22/08:00pm 5.8 3.7 4.0 88 0.8 WSW 4 7 2 4 1020.9 - 0.0
22/07:30pm 6.5 4.2 4.8 89 0.8 WSW 6 7 3 4 1020.9 - 0.0
22/07:00pm 10.1 7.9 5.5 73 2.2 WNW 6 6 3 3 1020.9 - 0.0
22/06:30pm 11.5 9.3 6.4 71 2.5 WNW 7 9 4 5 1020.6 - 0.0
22/06:00pm 12.0 9.5 6.7 70 2.7 NW 9 11 5 6 1020.2 1018.7 0.0
22/05:30pm 13.2 11.1 6.5 64 3.4 W 7 9 4 5 1019.8 - 0.0
22/05:00pm 13.3 11.0 7.3 67 3.1 NW 9 11 5 6 1019.7 - 0.0
22/04:30pm 13.9 11.6 7.4 65 3.4 NNW 9 13 5 7 1019.6 - 0.0
22/04:00pm 15.1 11.9 6.9 58 4.2 NNW 13 19 7 10 1019.6 - 0.0
22/03:30pm 15.7 11.7 6.7 55 4.6 NW 17 20 9 11 1019.6 - 0.0
22/03:00pm 15.7 11.8 7.0 56 4.5 NNW 17 20 9 11 1019.6 1018.1 0.0
22/02:30pm 15.9 12.1 7.7 58 4.3 NNW 17 20 9 11 1019.4 - 0.0
22/02:00pm 16.0 12.6 7.5 57 4.5 NNW 15 20 8 11 1019.4 - 0.0
22/01:30pm 15.9 11.3 5.8 51 5.1 NW 19 22 10 12 1019.6 - 0.0
22/01:00pm 16.2 12.5 6.3 52 5.1 NW 15 20 8 11 1019.7 - 0.0
22/12:30pm 15.7 11.5 5.9 52 5.0 NNW 17 22 9 12 1020.4 - 0.0
22/12:00pm 15.1 10.8 5.3 52 4.9 NNW 17 22 9 12 1020.7 1019.3 0.0
22/11:30am 15.6 11.1 6.3 54 4.8 NW 19 22 10 12 1021.1 - 0.0
22/11:00am 14.9 10.5 6.7 58 4.2 NNW 19 28 10 15 1021.4 - 0.0
22/10:30am 15.0 10.3 6.0 55 4.6 NNW 20 28 11 15 1021.4 - 0.0
22/10:00am 14.4 9.0 6.5 59 4.0 NNW 24 32 13 17 1021.6 - 0.0
22/09:30am 13.8 10.5 8.0 68 3.0 N 15 19 8 10 1021.4 - 0.0
22/09:00am 11.8 10.5 7.5 75 2.2 NW 4 7 2 4 1021.4 1019.9 0.0
22/08:30am 10.4 8.9 8.5 88 1.0 N 6 7 3 4 1021.3 - 0.0
22/08:00am 7.1 6.2 6.0 93 0.5 CALM 0 0 0 0 1021.1 - 0.0
22/07:30am 4.5 3.1 3.5 93 0.4 CALM 0 0 0 0 1020.8 - 0.0
22/07:00am 4.3 2.9 3.3 93 0.4 CALM 0 6 0 3 1020.6 - 0.0
22/06:30am 5.7 3.2 4.7 93 0.5 N 7 9 4 5 1020.5 - 0.0
22/06:00am 5.9 3.4 4.9 93 0.5 N 7 7 4 4 1020.6 1019.2 0.0
22/05:30am 5.5 3.0 4.5 93 0.5 N 7 9 4 5 1020.7 - 0.0
22/05:00am 5.2 1.8 4.0 92 0.5 N 11 13 6 7 1020.6 - 0.0
22/04:30am 6.0 3.5 5.0 93 0.5 N 7 9 4 5 1020.4 - 0.0
22/04:00am 5.5 2.6 4.5 93 0.5 N 9 9 5 5 1020.4 - 0.0
22/03:30am 6.2 3.4 5.0 92 0.6 NNW 9 9 5 5 1020.4 - 0.0
22/03:00am 6.5 4.3 5.5 93 0.5 N 6 7 3 4 1020.3 1018.8 0.0
22/02:30am 5.6 3.3 4.6 93 0.5 N 6 9 3 5 1020.7 - 0.0
22/02:00am 6.0 3.5 5.0 93 0.5 N 7 9 4 5 1021.1 - 0.0
22/01:30am 6.5 4.2 5.5 93 0.5 N 7 9 4 5 1021.4 - 0.0
22/01:00am 6.7 4.0 5.7 93 0.5 N 9 11 5 6 1021.5 - 0.0
22/12:30am 6.5 4.2 5.5 93 0.5 N 7 7 4 4 1021.7 - 0.0
22/12:00am 6.5 4.2 5.5 93 0.5 N 7 9 4 5 1021.8 1020.4 0.0
 
Date/Time
EST
Temp
°C
App
Temp
°C
Dew
Point
Rel
Hum
%
Delta-T
°C
Wind Press
QNH
hPa
Press
MSL
hPa
Rain
since 9 am
mm
Dir
 
Spd
km/h
Gust
km/h
Spd
kts
Gust
kts
21/11:30pm 6.3 4.1 5.3 93 0.5 NNW 6 7 3 4 1022.0 - 0.0
21/11:00pm 6.4 5.4 5.4 93 0.5 CALM 0 0 0 0 1022.1 - 0.0
21/10:30pm 6.4 5.4 5.4 93 0.5 CALM 0 0 0 0 1022.1 - 0.0
21/10:00pm 5.4 4.2 4.4 93 0.5 CALM 0 0 0 0 1022.3 - 0.0
21/09:30pm 5.6 4.4 4.6 93 0.5 CALM 0 0 0 0 1022.4 - 0.0
21/09:00pm 5.6 4.4 4.6 93 0.5 CALM 0 0 0 0 1022.3 1020.8 0.0
21/08:30pm 5.3 4.0 4.3 93 0.5 CALM 0 0 0 0 1022.3 - 0.0
21/08:00pm 6.1 5.0 5.1 93 0.5 CALM 0 0 0 0 1022.1 - 0.0
21/07:30pm 6.4 5.2 4.4 87 0.9 CALM 0 0 0 0 1022.0 - 0.0
21/07:00pm 7.9 6.9 5.5 85 1.1 CALM 0 0 0 0 1021.8 - 0.0
21/06:30pm 9.3 8.4 6.0 80 1.6 CALM 0 0 0 0 1021.7 - 0.0
21/06:00pm 10.5 9.3 6.6 77 1.9 WSW 2 7 1 4 1021.5 1020.1 0.0
21/05:30pm 11.2 8.8 7.1 76 2.1 SSW 9 11 5 6 1021.1 - 0.0
21/05:00pm 13.8 13.0 8.0 68 3.0 SW 2 6 1 3 1020.7 - 0.0
21/04:30pm 16.0 15.0 7.5 57 4.5 NE 2 9 1 5 1020.7 - 0.0
21/04:00pm 16.4 14.3 6.0 50 5.3 NE 6 7 3 4 1020.5 - 0.0
21/03:30pm 16.6 14.6 6.4 51 5.3 E 6 9 3 5 1020.5 - 0.0
21/03:00pm 16.9 15.6 5.8 48 5.6 NE 2 7 1 4 1020.4 1018.9 0.0

Other Formats:

Comma delimited format used in spreadsheet applications
http://www.bom.gov.au/fwo/IDN60801/IDN60801.95726.axf

JavaScript Object Notation format (JSON) in row-major order
http://www.bom.gov.au/fwo/IDN60801/IDN60801.95726.json